M I D A S
Marine Information and Data Acquisition System
Tripno 2122 of the Zeeleeuw from 2011-06-17 07:37:05 to 2011-06-17 14:36:01
Back to CruiseResearch ActivitiesStationsMapUnderway DataData graphs

EquipmentUnitsComment
TimeDGPSUTC
LatitudeDGPSDM.mWGS84
LongitudeDGPSDM.mWGS84
TemperatureSBE03/SBE38deg celciusITS90
ConductivitySBE21S/mITS90
SalinitySBE21 Practical Salinity Units
ChlorophylAChelsea fluorimeterg/lCalibrated in Aceton
Missing or incorrect values are displayed as -999
Sea surface data collected by the RV Zeeleeuw from 2011-06-17 07:27:08 to 2011-06-17 15:16:07
Time Latitude Longitude Temperature Conductivity Salinity ChlorophylA
2011-06-17 07:28:14 51°13.659 2°55.933 20.2841 0.01197 0.06889 -3.020363
2011-06-17 07:29:13 51°13.67 2°55.882 20.2572 0.01197 0.068893 -3.020363
2011-06-17 07:30:14 51°13.7 2°55.799 20.262 0.01197 0.068895 -3.020363
2011-06-17 07:31:13 51°13.745 2°55.725 20.2632 0.01197 0.068897 -3.020363
2011-06-17 07:32:13 51°13.809 2°55.651 20.291 0.01197 0.0689 -3.020363
2011-06-17 07:33:13 51°13.875 2°55.608 20.2979 0.01197 0.068901 -3.020363
2011-06-17 07:34:13 51°13.935 2°55.612 17.0967 4.076115 30.332538 -3.020363
2011-06-17 07:35:12 51°13.956 2°55.609 16.9732 3.97498 30.379718 -3.020363
2011-06-17 07:36:13 51°14.015 2°55.517 16.9557 3.570587 27.042421 -3.020363
2011-06-17 07:37:14 51°14.135 2°55.425 16.9059 3.865252 29.534957 -3.020363
2011-06-17 07:38:13 51°14.278 2°55.314 16.9077 3.8982 29.837197 -3.020363
2011-06-17 07:39:13 51°14.431 2°55.156 16.8241 3.91654 30.010238 -3.020363
2011-06-17 07:40:11 51°14.599 2°54.986 16.7497 4.072403 31.41139 -3.020363
2011-06-17 07:41:10 51°14.789 2°54.856 16.5507 4.152634 32.185165 -3.020363
2011-06-17 07:42:09 51°14.979 2°54.744 16.4032 4.306812 33.689884 -3.020363
2011-06-17 07:43:09 51°15.155 2°54.576 16.3425 4.34539 34.117536 -3.020363
2011-06-17 07:44:10 51°15.336 2°54.409 16.2715 4.350266 34.223743 -3.020363
2011-06-17 07:45:10 51°15.516 2°54.228 16.1999 4.358874 34.36331 -3.020363
2011-06-17 07:46:09 51°15.681 2°54.011 16.1753 4.36126 34.425878 -3.020363
2011-06-17 07:47:08 51°15.859 2°53.827 16.0999 4.360846 34.447603 -3.020363
2011-06-17 07:48:09 51°16.03 2°53.606 16.0353 4.364166 34.542068 -3.020363
2011-06-17 07:49:10 51°16.209 2°53.407 16.0234 4.363233 34.584945 -3.020363
2011-06-17 07:50:10 51°16.377 2°53.193 16.1097 4.363544 34.584859 -3.020363
2011-06-17 07:51:09 51°16.559 2°53.031 16.1943 4.366239 34.517204 -3.020363
2011-06-17 07:52:10 51°16.741 2°52.856 16.1292 4.372876 34.535569 -3.020363
2011-06-17 07:53:10 51°16.912 2°52.678 16.0503 4.374952 34.626246 -3.020363
2011-06-17 07:54:10 51°17.09 2°52.522 16.0536 4.372048 34.6489 -3.020363
2011-06-17 07:55:09 51°17.271 2°52.382 16.0263 4.371426 34.653357 -3.020363
2011-06-17 07:56:09 51°17.448 2°52.214 16.0205 4.370804 34.65853 -3.020363
2011-06-17 07:57:10 51°17.634 2°52.067 16.0136 4.370078 34.649948 -3.020363
2011-06-17 07:58:09 51°17.81 2°51.918 16.0035 4.370804 34.668518 -3.020363
2011-06-17 07:59:09 51°17.993 2°51.779 15.9894 4.368212 34.652636 -3.020363
2011-06-17 08:00:09 51°18.177 2°51.634 15.9868 4.368938 34.669789 -3.020363
2011-06-17 08:01:09 51°18.362 2°51.484 15.9889 4.368212 34.665484 -3.020363
2011-06-17 08:02:10 51°18.553 2°51.348 15.9977 4.369249 34.669696 -3.020363
2011-06-17 08:03:09 51°18.735 2°51.206 15.9979 4.367901 34.657723 -3.020363
2011-06-17 08:04:10 51°18.921 2°51.051 15.999 4.371012 34.683926 -3.020363
2011-06-17 08:05:10 51°19.104 2°50.892 15.9982 4.369456 34.667968 -3.020363
2011-06-17 08:06:10 51°19.289 2°50.744 15.9901 4.36873 34.667233 -3.020363
2011-06-17 08:07:09 51°19.469 2°50.591 15.9816 4.367071 34.661063 -3.020363
2011-06-17 08:08:09 51°19.656 2°50.444 15.9739 4.370701 34.699744 -3.020363
2011-06-17 08:09:09 51°19.842 2°50.284 15.9721 4.368938 34.690512 -3.020363
2011-06-17 08:10:09 51°20.028 2°50.131 15.9754 4.362716 34.634505 -3.020363
2011-06-17 08:11:10 51°20.195 2°49.988 15.99 4.355974 34.568922 -3.020363
2011-06-17 08:12:09 51°20.328 2°49.859 16.0376 4.353693 34.533718 -3.020363
2011-06-17 08:13:09 51°20.463 2°49.735 16.1132 4.34664 34.423641 -3.020363
2011-06-17 08:14:10 51°20.598 2°49.61 16.1702 4.340001 34.299266 -3.020363
2011-06-17 08:15:09 51°20.72 2°49.477 16.1996 4.337304 34.236806 -3.020363
2011-06-17 08:16:09 51°20.843 2°49.343 16.2077 4.337512 34.219011 -3.020363
2011-06-17 08:17:10 51°20.984 2°49.21 16.242 4.33803 34.210981 -3.020363
2011-06-17 08:18:09 51°21.156 2°49.061 16.2747 4.333985 34.146659 -3.020363
2011-06-17 08:19:09 51°21.35 2°48.943 16.2907 4.330148 34.087762 -3.020363
2011-06-17 08:20:10 51°21.547 2°48.818 16.2917 4.330458 34.077279 -3.020363
2011-06-17 08:21:09 51°21.737 2°48.684 16.2891 4.334503 34.114969 -3.020363
2011-06-17 08:22:09 51°21.932 2°48.552 16.3108 4.333569 34.102575 -3.020363
2011-06-17 08:23:09 51°22.127 2°48.445 16.2687 4.333569 34.09492 -3.020363
2011-06-17 08:24:10 51°22.324 2°48.318 16.2129 4.335748 34.152423 -3.020363
2011-06-17 08:25:09 51°22.512 2°48.202 16.1129 4.326934 34.134065 -3.020363
2011-06-17 08:26:09 51°22.697 2°48.072 16.0778 4.321128 34.156978 -3.020363
2011-06-17 08:27:10 51°22.889 2°47.954 16.0871 4.317188 34.140363 -3.020363
2011-06-17 08:28:09 51°23.076 2°47.837 16.1315 4.315632 34.10559 -3.020363
2011-06-17 08:29:10 51°23.271 2°47.713 16.1548 4.315527 34.07041 -3.020363
2011-06-17 08:30:09 51°23.458 2°47.586 16.0472 4.315943 34.095043 -3.020363
2011-06-17 08:31:09 51°23.649 2°47.46 16.012 4.312625 34.132965 -3.020363
2011-06-17 08:32:09 51°23.84 2°47.33 16.0298 4.30827 34.107742 -3.020363
2011-06-17 08:33:09 51°24.032 2°47.202 16.0548 4.305159 34.067585 -3.020363
2011-06-17 08:34:09 51°24.221 2°47.06 16.0855 4.303292 34.033572 -3.020363
2011-06-17 08:35:09 51°24.41 2°46.921 16.1192 4.300907 33.98594 -3.020363
2011-06-17 08:36:09 51°24.599 2°46.779 16.1363 4.297173 33.925793 -3.020363
2011-06-17 08:37:10 51°24.792 2°46.64 16.1182 4.297484 33.918104 -3.020363
2011-06-17 08:38:09 51°24.976 2°46.499 16.0792 4.295929 33.925247 -3.020363
2011-06-17 08:39:09 51°25.165 2°46.36 16.0593 4.294478 33.942378 -3.020363
2011-06-17 08:40:10 51°25.359 2°46.22 16.0299 4.294996 33.963704 -3.020363
2011-06-17 08:41:09 51°25.543 2°46.077 15.9817 4.297278 34.011841 -3.020363
2011-06-17 08:42:09 51°25.732 2°45.943 15.9647 4.298419 34.051362 -3.020363
2011-06-17 08:43:09 51°25.92 2°45.811 15.9065 4.301842 34.110483 -3.020363
2011-06-17 08:44:09 51°26.107 2°45.671 15.8784 4.30402 34.171362 -3.020363
2011-06-17 08:45:10 51°26.296 2°45.523 15.8349 4.305472 34.206854 -3.020363
2011-06-17 08:46:09 51°26.481 2°45.387 15.7819 4.307132 34.271172 -3.020363
2011-06-17 08:47:10 51°26.674 2°45.251 15.7389 4.306822 34.304618 -3.020363
2011-06-17 08:48:10 51°26.862 2°45.107 15.7362 4.30537 34.319424 -3.020363
2011-06-17 08:49:10 51°27.052 2°44.971 15.7234 4.304956 34.318574 -3.020363
2011-06-17 08:50:09 51°27.237 2°44.823 15.6851 4.305163 34.338946 -3.020363
2011-06-17 08:51:10 51°27.429 2°44.68 15.6166 4.306305 34.391963 -3.020363
2011-06-17 08:52:09 51°27.618 2°44.56 15.5728 4.307343 34.456393 -3.020363
2011-06-17 08:53:10 51°27.813 2°44.42 15.5392 4.309002 34.507182 -3.020363
2011-06-17 08:54:10 51°28.002 2°44.282 15.4572 4.310247 34.550036 -3.020363
2011-06-17 08:55:10 51°28.192 2°44.149 15.3923 4.308589 34.611771 -3.020363
2011-06-17 08:56:10 51°28.38 2°44.013 15.3752 4.306101 34.6271 -3.020363
2011-06-17 08:57:09 51°28.568 2°43.897 15.3506 4.304857 34.634054 -3.020363
2011-06-17 08:58:10 51°28.76 2°43.778 15.3337 4.304235 34.648802 -3.020363
2011-06-17 08:59:09 51°28.945 2°43.648 15.3252 4.304443 34.665948 -3.020363
2011-06-17 09:00:10 51°29.134 2°43.515 15.3082 4.304028 34.670219 -3.020363
2011-06-17 09:01:09 51°29.316 2°43.383 15.2837 4.303614 34.679593 -3.020363
2011-06-17 09:02:09 51°29.503 2°43.264 15.2518 4.302784 34.697634 -3.020363
2011-06-17 09:03:10 51°29.694 2°43.157 15.2181 4.302059 34.720295 -3.020363
2011-06-17 09:04:09 51°29.869 2°43.236 15.1948 4.301437 34.733689 -3.020363
2011-06-17 09:05:10 51°30.052 2°43.315 15.1666 4.299571 34.743909 -3.020363
2011-06-17 09:06:09 51°30.232 2°43.388 15.1596 4.298431 34.754849 -3.020363
2011-06-17 09:07:10 51°30.416 2°43.465 15.1448 4.297601 34.754679 -3.020363
2011-06-17 09:08:09 51°30.59 2°43.554 15.1499 4.297187 34.758995 -3.020363
2011-06-17 09:09:10 51°30.771 2°43.644 15.1536 4.297187 34.757528 -3.020363
2011-06-17 09:10:09 51°30.95 2°43.726 15.1628 4.297601 34.757613 -3.020363
2011-06-17 09:11:09 51°31.129 2°43.818 15.1705 4.298327 34.756111 -3.020363
2011-06-17 09:12:09 51°31.307 2°43.9 15.1712 4.298638 34.752326 -3.020363
2011-06-17 09:13:09 51°31.489 2°43.989 15.1721 4.298949 34.755873 -3.020363
2011-06-17 09:14:09 51°31.67 2°44.069 15.1708 4.298949 34.754406 -3.020363
2011-06-17 09:15:10 51°31.85 2°44.166 15.1662 4.298742 34.755463 -3.020363
2011-06-17 09:16:10 51°32.031 2°44.253 15.1594 4.298845 34.756401 -3.020363
2011-06-17 09:17:09 51°32.211 2°44.334 15.1633 4.29812 34.758636 -3.020363
2011-06-17 09:18:09 51°32.391 2°44.423 15.1458 4.297601 34.762749 -3.020363
2011-06-17 09:19:09 51°32.57 2°44.518 15.1203 4.297187 34.770006 -3.020363
2011-06-17 09:20:09 51°32.753 2°44.599 15.0996 4.296046 34.776573 -3.020363
2011-06-17 09:21:10 51°32.937 2°44.685 15.0889 4.295217 34.783761 -3.020363
2011-06-17 09:22:09 51°33.114 2°44.774 15.0652 4.294077 34.790344 -3.020363
2011-06-17 09:23:10 51°33.299 2°44.861 15.0416 4.292833 34.797467 -3.020363
2011-06-17 09:24:09 51°33.479 2°44.948 15.031 4.291692 34.80333 -3.020363
2011-06-17 09:25:10 51°33.664 2°45.032 15.0054 4.290552 34.808463 -3.020363
2011-06-17 09:26:09 51°33.839 2°45.115 14.9929 4.289411 34.817292 -3.020363
2011-06-17 09:27:10 51°34.018 2°45.215 14.9653 4.288271 34.826133 -3.020363
2011-06-17 09:28:09 51°34.195 2°45.297 14.9489 4.287027 34.828868 -3.020363
2011-06-17 09:29:09 51°34.372 2°45.38 14.9468 4.286094 34.834435 -3.020363
2011-06-17 09:30:09 51°34.549 2°45.468 14.9225 4.285161 34.834087 -3.020363
2011-06-17 09:31:09 51°34.729 2°45.55 14.9155 4.283191 34.830968 -3.020363
2011-06-17 09:32:09 51°34.903 2°45.667 14.9041 4.282258 34.830621 -3.020363
2011-06-17 09:33:09 51°35.073 2°45.786 14.9004 4.281117 34.827646 -3.020363
2011-06-17 09:34:09 51°35.242 2°45.911 14.901 4.280806 34.827777 -3.020363
2011-06-17 09:35:09 51°35.413 2°46.037 14.9009 4.281117 34.833571 -3.020363
2011-06-17 09:36:10 51°35.601 2°46.112 14.9017 4.280806 34.832962 -3.020363
2011-06-17 09:37:09 51°35.785 2°46.173 14.8966 4.279458 34.819211 -3.020363
2011-06-17 09:38:10 51°35.968 2°46.264 14.8953 4.280703 34.835723 -3.020363
2011-06-17 09:39:10 51°36.15 2°46.358 14.8926 4.279458 34.821433 -3.020363
2011-06-17 09:40:09 51°36.328 2°46.449 14.8849 4.280806 34.839631 -3.020363
2011-06-17 09:41:10 51°36.514 2°46.54 14.8891 4.280806 34.840372 -3.020363
2011-06-17 09:42:10 51°36.694 2°46.642 14.8772 4.28091 34.845023 -3.020363
2011-06-17 09:43:09 51°36.873 2°46.734 14.8679 4.280495 34.848661 -3.020363
2011-06-17 09:44:10 51°37.054 2°46.841 14.8674 4.280288 34.85048 -3.020363
2011-06-17 09:45:10 51°37.237 2°46.933 14.8637 4.280185 34.853245 -3.020363
2011-06-17 09:46:10 51°37.413 2°47.042 14.8571 4.27977 34.857629 -3.020363
2011-06-17 09:47:10 51°37.59 2°47.156 14.8492 4.27977 34.857629 -3.020363
2011-06-17 09:48:09 51°37.764 2°47.258 14.8443 4.279563 34.863163 -3.020363
2011-06-17 09:49:09 51°37.938 2°47.369 14.8396 4.279563 34.867619 -3.020363
2011-06-17 09:50:10 51°38.124 2°47.465 14.8394 4.279459 34.872616 -3.020363
2011-06-17 09:51:09 51°38.292 2°47.587 14.8466 4.279252 34.868497 -3.020363
2011-06-17 09:52:10 51°38.472 2°47.68 14.8584 4.278837 34.855806 -3.020363
2011-06-17 09:53:10 51°38.647 2°47.789 14.8744 4.278837 34.843933 -3.020363
2011-06-17 09:54:10 51°38.82 2°47.889 14.8802 4.279044 34.836923 -3.020363
2011-06-17 09:55:10 51°38.995 2°47.993 14.8992 4.278421 34.820882 -3.020363
2011-06-17 09:56:09 51°39.168 2°48.088 14.9084 4.278318 34.808089 -3.020363
2011-06-17 09:57:10 51°39.34 2°48.214 14.9203 4.277695 34.792808 -3.020363
2011-06-17 09:58:09 51°39.514 2°48.306 14.9325 4.277073 34.778276 -3.020363
2011-06-17 09:59:10 51°39.689 2°48.417 14.9437 4.276554 34.755833 -3.020363
2011-06-17 10:00:09 51°39.86 2°48.514 14.9577 4.276139 34.748372 -3.020363
2011-06-17 10:01:10 51°40.032 2°48.631 14.9642 4.275621 34.730383 -3.020363
2011-06-17 10:02:09 51°40.199 2°48.742 14.9715 4.275621 34.726697 -3.020363
2011-06-17 10:03:10 51°40.373 2°48.858 14.9775 4.274584 34.706964 -3.020363
2011-06-17 10:04:10 51°40.551 2°48.942 14.9845 4.274169 34.699516 -3.020363
2011-06-17 10:05:09 51°40.723 2°49.049 14.9935 4.273858 34.687125 -3.020363
2011-06-17 10:06:10 51°40.904 2°49.148 15.008 4.273443 34.673065 -3.020363
2011-06-17 10:07:10 51°41.077 2°49.265 15.0129 4.273339 34.667715 -3.020363
2011-06-17 10:08:10 51°41.253 2°49.36 15.0279 4.273131 34.659955 -3.020363
2011-06-17 10:09:10 51°41.419 2°49.491 15.0225 4.273546 34.655639 -3.020363
2011-06-17 10:10:10 51°41.598 2°49.572 15.0269 4.273442 34.653965 -3.020363
2011-06-17 10:11:10 51°41.772 2°49.659 15.0226 4.274064 34.655202 -3.020363
2011-06-17 10:12:10 51°41.913 2°49.444 15.0237 4.273546 34.658577 -3.020363
2011-06-17 10:13:10 51°42.053 2°49.186 15.0065 4.274376 34.662429 -3.020363
2011-06-17 10:14:10 51°42.192 2°48.926 14.9961 4.274168 34.676712 -3.020363
2011-06-17 10:15:09 51°42.33 2°48.673 14.9901 4.274376 34.687418 -3.020363
2011-06-17 10:16:10 51°42.349 2°48.328 14.9839 4.274687 34.696863 -3.020363
2011-06-17 10:17:10 51°42.163 2°48.129 14.9808 4.274791 34.705166 -3.020363
2011-06-17 10:18:10 51°41.944 2°47.978 14.9848 4.275828 34.710164 -3.020363
2011-06-17 10:19:10 51°41.722 2°47.84 14.9771 4.275828 34.716792 -3.020363
2011-06-17 10:20:09 51°41.504 2°47.7 14.9646 4.275828 34.721212 -3.020363
2011-06-17 10:21:09 51°41.287 2°47.539 14.9574 4.275621 34.724486 -3.020363
2011-06-17 10:22:10 51°41.064 2°47.388 14.9551 4.275621 34.73112 -3.020363
2011-06-17 10:23:09 51°40.847 2°47.256 14.9495 4.276036 34.737839 -3.020363
2011-06-17 10:24:10 51°40.626 2°47.102 14.9379 4.276762 34.751075 -3.020363
2011-06-17 10:25:10 51°40.41 2°46.952 14.9296 4.27728 34.763908 -3.020363
2011-06-17 10:26:09 51°40.192 2°46.82 14.9384 4.277384 34.768544 -3.020363
2011-06-17 10:27:09 51°39.972 2°46.675 14.9405 4.277799 34.766406 -3.020363
2011-06-17 10:28:09 51°39.755 2°46.523 14.938 4.278421 34.77354 -3.020363
2011-06-17 10:29:09 51°39.53 2°46.405 14.93 4.278732 34.780062 -3.020363
2011-06-17 10:30:10 51°39.301 2°46.294 14.9079 4.279458 34.793314 -3.020363
2011-06-17 10:31:10 51°39.077 2°46.176 14.894 4.28008 34.815989 -3.020363
2011-06-17 10:32:09 51°38.858 2°46.061 14.8632 4.281014 34.845967 -3.020363
2011-06-17 10:33:09 51°38.631 2°45.98 14.8334 4.281429 34.871261 -3.020363
2011-06-17 10:34:10 51°38.4 2°45.902 14.8179 4.281015 34.890513 -3.020363
2011-06-17 10:35:09 51°38.177 2°45.822 14.8071 4.280496 34.898428 -3.020363
2011-06-17 10:36:10 51°37.949 2°45.721 14.7995 4.279978 34.904116 -3.020363
2011-06-17 10:37:10 51°37.725 2°45.624 14.7943 4.279667 34.906489 -3.020363
2011-06-17 10:38:09 51°37.507 2°45.514 14.7939 4.279252 34.909406 -3.020363
2011-06-17 10:39:10 51°37.282 2°45.393 14.7919 4.279563 34.909266 -3.020363
2011-06-17 10:40:09 51°37.063 2°45.284 14.7907 4.27946 34.912043 -3.020363
2011-06-17 10:41:09 51°36.842 2°45.173 14.7925 4.279149 34.909204 -3.020363
2011-06-17 10:42:10 51°36.615 2°45.065 14.7971 4.279149 34.907714 -3.020363
2011-06-17 10:43:10 51°36.4 2°44.923 14.8047 4.279356 34.90365 -3.020363
2011-06-17 10:44:09 51°36.186 2°44.796 14.8082 4.279356 34.899929 -3.020363
2011-06-17 10:45:09 51°35.968 2°44.673 14.8203 4.279667 34.895325 -3.020363
2011-06-17 10:46:10 51°35.748 2°44.537 14.8257 4.27977 34.891808 -3.020363
2011-06-17 10:47:09 51°35.535 2°44.409 14.8339 4.280081 34.884234 -3.020363
2011-06-17 10:48:09 51°35.32 2°44.279 14.8432 4.280392 34.880381 -3.020363
2011-06-17 10:49:10 51°35.098 2°44.153 14.8584 4.280496 34.873153 -3.020363
2011-06-17 10:50:09 51°34.884 2°44.029 14.8678 4.281118 34.868427 -3.020363
2011-06-17 10:51:10 51°34.666 2°43.89 14.8724 4.281118 34.863231 -3.020363
2011-06-17 10:52:09 51°34.454 2°43.758 14.8784 4.281325 34.8577 -3.020363
2011-06-17 10:53:09 51°34.234 2°43.646 14.8852 4.281429 34.854193 -3.020363
2011-06-17 10:54:09 51°34.018 2°43.517 14.8924 4.28174 34.850352 -3.020363
2011-06-17 10:55:10 51°33.8 2°43.38 14.8931 4.28174 34.847386 -3.020363
2011-06-17 10:56:10 51°33.584 2°43.252 14.899 4.281947 34.845568 -3.020363
2011-06-17 10:57:10 51°33.366 2°43.139 14.9005 4.282051 34.844289 -3.020363
2011-06-17 10:58:10 51°33.159 2°42.988 14.9012 4.282465 34.843618 -3.020363
2011-06-17 10:59:10 51°32.986 2°42.749 14.9127 4.283087 34.843354 -3.020363
2011-06-17 11:00:10 51°32.836 2°42.471 14.9109 4.283709 34.84383 -3.020363
2011-06-17 11:01:09 51°32.691 2°42.193 14.9129 4.283813 34.845515 -3.020363
2011-06-17 11:02:10 51°32.557 2°41.888 14.9144 4.284021 34.846661 -3.020363
2011-06-17 11:03:09 51°32.46 2°41.562 14.9038 4.284021 34.848883 -3.020363
2011-06-17 11:04:10 51°32.355 2°41.229 14.9001 4.283606 34.852518 -3.020363
2011-06-17 11:05:09 51°32.247 2°40.914 14.8906 4.283399 34.854337 -3.020363
2011-06-17 11:06:09 51°32.14 2°40.59 14.8853 4.283088 34.858177 -3.020363
2011-06-17 11:07:10 51°32.074 2°40.254 14.8944 4.283088 34.858918 -3.020363
2011-06-17 11:08:09 51°32.227 2°40.141 14.8755 4.284435 34.85414 -3.020363
2011-06-17 11:09:10 51°32.42 2°40.203 14.8672 4.282466 34.862895 -3.020363
2011-06-17 11:10:10 51°32.607 2°40.282 14.8623 4.282051 34.873218 -3.020363
2011-06-17 11:11:10 51°32.782 2°40.407 14.8654 4.282466 34.876254 -3.020363
2011-06-17 11:12:10 51°32.959 2°40.539 14.8707 4.282777 34.876118 -3.020363
2011-06-17 11:13:10 51°33.139 2°40.658 14.8739 4.283295 34.877872 -3.020363
2011-06-17 11:14:10 51°33.317 2°40.788 14.8763 4.283917 34.876859 -3.020363
2011-06-17 11:15:09 51°33.5 2°40.907 14.8745 4.284125 34.878005 -3.020363
2011-06-17 11:16:10 51°33.681 2°41.04 14.8738 4.284332 34.880636 -3.020363
2011-06-17 11:17:09 51°33.857 2°41.163 14.8709 4.284643 34.884212 -3.020363
2011-06-17 11:18:09 51°34.038 2°41.283 14.866 4.28454 34.885495 -3.020363
2011-06-17 11:19:10 51°34.224 2°41.406 14.8616 4.284643 34.890152 -3.020363
2011-06-17 11:20:09 51°34.399 2°41.539 14.8555 4.284436 34.893462 -3.020363
2011-06-17 11:21:10 51°34.586 2°41.66 14.854 4.284229 34.896029 -3.020363
2011-06-17 11:22:10 51°34.781 2°41.73 14.8549 4.283918 34.89691 -3.020363
2011-06-17 11:23:10 51°34.974 2°41.815 14.8615 4.283503 34.890901 -3.020363
2011-06-17 11:24:10 51°35.167 2°41.91 14.8674 4.283814 34.888536 -3.020363
2011-06-17 11:25:10 51°35.359 2°42.006 14.8481 4.283814 34.892993 -3.020363
2011-06-17 11:26:09 51°35.554 2°42.092 14.8362 4.283399 34.898873 -3.020363
2011-06-17 11:27:10 51°35.752 2°42.189 14.8186 4.282881 34.904556 -3.020363
2011-06-17 11:28:09 51°35.944 2°42.28 14.8003 4.281948 34.912413 -3.020363
2011-06-17 11:29:09 51°36.138 2°42.376 14.7853 4.281326 34.921628 -3.020363
2011-06-17 11:30:10 51°36.335 2°42.474 14.7686 4.280289 34.927065 -3.020363
2011-06-17 11:31:10 51°36.529 2°42.575 14.7679 4.279253 34.925053 -3.020363
2011-06-17 11:32:10 51°36.724 2°42.661 14.768 4.27863 34.923099 -3.020363
2011-06-17 11:33:10 51°36.921 2°42.748 14.7717 4.277905 34.915726 -3.020363
2011-06-17 11:34:10 51°37.111 2°42.856 14.7804 4.277386 34.908757 -3.020363
2011-06-17 11:35:09 51°37.299 2°42.965 14.7836 4.277282 34.901105 -3.020363
2011-06-17 11:36:10 51°37.497 2°43.063 14.797 4.276971 34.892309 -3.020363
2011-06-17 11:37:10 51°37.689 2°43.164 14.8127 4.277178 34.883782 -3.020363
2011-06-17 11:38:10 51°37.886 2°43.261 14.8165 4.277593 34.875665 -3.020363
2011-06-17 11:39:10 51°38.082 2°43.364 14.8324 4.278111 34.869243 -3.020363
2011-06-17 11:40:10 51°38.275 2°43.469 14.8389 4.278422 34.863907 -3.020363
2011-06-17 11:41:10 51°38.47 2°43.567 14.8504 4.278526 34.858168 -3.020363
2011-06-17 11:42:10 51°38.667 2°43.663 14.8642 4.279148 34.85196 -3.020363
2011-06-17 11:43:10 51°38.86 2°43.767 14.8819 4.279459 34.843666 -3.020363
2011-06-17 11:44:09 51°39.051 2°43.867 14.8887 4.279769 34.831673 -3.020363
2011-06-17 11:45:10 51°39.248 2°43.972 14.9022 4.279666 34.82332 -3.020363
2011-06-17 11:46:09 51°39.438 2°44.072 14.9115 4.279562 34.811271 -3.020363
2011-06-17 11:47:09 51°39.636 2°44.16 14.9229 4.279251 34.799562 -3.020363
2011-06-17 11:48:10 51°39.838 2°44.254 14.9284 4.278732 34.788191 -3.020363
2011-06-17 11:49:09 51°40.034 2°44.348 14.9324 4.27811 34.775143 -3.020363
2011-06-17 11:50:10 51°40.237 2°44.447 14.9341 4.277384 34.764851 -3.020363
2011-06-17 11:51:10 51°40.434 2°44.564 14.928 4.276762 34.758456 -3.020363
2011-06-17 11:52:10 51°40.632 2°44.668 14.9111 4.275414 34.753584 -3.020363
2011-06-17 11:53:10 51°40.835 2°44.756 14.9062 4.274273 34.755028 -3.020363
2011-06-17 11:54:09 51°41.032 2°44.857 14.8926 4.273755 34.759178 -3.020363
2011-06-17 11:55:10 51°41.236 2°44.961 14.8769 4.273859 34.770471 -3.020363
2011-06-17 11:56:09 51°41.436 2°45.057 14.86 4.273963 34.786212 -3.020363
2011-06-17 11:57:10 51°41.643 2°45.163 14.8478 4.273859 34.798597 -3.020363
2011-06-17 11:58:10 51°41.844 2°45.267 14.8253 4.273756 34.814699 -3.020363
2011-06-17 11:59:10 51°42.045 2°45.365 14.8052 4.273445 34.830413 -3.020363
2011-06-17 12:00:10 51°42.242 2°45.5 14.7884 4.273031 34.839999 -3.020363
2011-06-17 12:01:10 51°42.436 2°45.642 14.7737 4.27272 34.851282 -3.020363
2011-06-17 12:02:09 51°42.632 2°45.772 14.7644 4.272409 34.862575 -3.020363
2011-06-17 12:03:10 51°42.833 2°45.902 14.7466 4.272098 34.870156 -3.020363
2011-06-17 12:04:10 51°43.028 2°46.034 14.7452 4.271891 34.875709 -3.020363
2011-06-17 12:05:09 51°43.222 2°46.09 14.7378 4.270854 34.875177 -3.020363
2011-06-17 12:06:10 51°43.403 2°45.93 14.7363 4.270543 34.876061 -3.020363
2011-06-17 12:07:10 51°43.533 2°45.672 14.7167 4.27075 34.885409 -3.020363
2011-06-17 12:08:10 51°43.656 2°45.405 14.7056 4.270128 34.891656 -3.020363
2011-06-17 12:09:09 51°43.785 2°45.15 14.6923 4.269506 34.896414 -3.020363
2011-06-17 12:10:10 51°43.92 2°44.885 14.6769 4.267848 34.896173 -3.020363
2011-06-17 12:11:09 51°44.05 2°44.63 14.6575 4.267744 34.907176 -3.020363
2011-06-17 12:12:10 51°44.143 2°44.338 14.6305 4.265049 34.905675 -3.020363
2011-06-17 12:13:10 51°44.067 2°44.051 14.6143 4.264427 34.918681 -3.020363
2011-06-17 12:14:10 51°43.881 2°43.929 14.6057 4.264427 34.931411 -3.020363
2011-06-17 12:15:10 51°43.673 2°43.881 14.6026 4.263494 34.930351 -3.020363
2011-06-17 12:16:10 51°43.474 2°43.794 14.6137 4.263597 34.928305 -3.020363
2011-06-17 12:17:10 51°43.275 2°43.696 14.6216 4.263908 34.923665 -3.020363
2011-06-17 12:18:09 51°43.079 2°43.613 14.6314 4.264219 34.920525 -3.020363
2011-06-17 12:19:10 51°42.875 2°43.536 14.6391 4.264945 34.919687 -3.020363
2011-06-17 12:20:09 51°42.678 2°43.462 14.6566 4.265878 34.917757 -3.020363
2011-06-17 12:21:10 51°42.478 2°43.367 14.6711 4.265774 34.904095 -3.020363
2011-06-17 12:22:10 51°42.28 2°43.28 14.6844 4.26847 34.916059 -3.020363
2011-06-17 12:23:09 51°42.085 2°43.197 14.6938 4.268262 34.903701 -3.020363
2011-06-17 12:24:10 51°41.883 2°43.121 14.7059 4.269195 34.898795 -3.020363
2011-06-17 12:25:09 51°41.689 2°43.031 14.7124 4.271062 34.906903 -3.020363
2011-06-17 12:26:10 51°41.495 2°42.921 14.7213 4.271373 34.903776 -3.020363
2011-06-17 12:27:09 51°41.307 2°42.818 14.7297 4.272098 34.902202 -3.020363
2011-06-17 12:28:10 51°41.11 2°42.728 14.7393 4.272617 34.900227 -3.020363
2011-06-17 12:29:09 51°40.919 2°42.647 14.7491 4.273343 34.899402 -3.020363
2011-06-17 12:30:10 51°40.725 2°42.549 14.7561 4.273861 34.898174 -3.020363
2011-06-17 12:31:10 51°40.531 2°42.471 14.7642 4.274483 34.898639 -3.020363
2011-06-17 12:32:10 51°40.339 2°42.384 14.7663 4.275312 34.898762 -3.020363
2011-06-17 12:33:10 51°40.148 2°42.295 14.765 4.275312 34.897272 -3.020363
2011-06-17 12:34:10 51°39.955 2°42.214 14.7699 4.275416 34.895984 -3.020363
2011-06-17 12:35:10 51°39.763 2°42.132 14.7662 4.275416 34.895984 -3.020363
2011-06-17 12:36:09 51°39.579 2°42.029 14.7656 4.275623 34.897878 -3.020363
2011-06-17 12:37:10 51°39.389 2°41.92 14.7616 4.275934 34.899973 -3.020363
2011-06-17 12:38:10 51°39.2 2°41.835 14.7606 4.276038 34.904645 -3.020363
2011-06-17 12:39:10 51°39.013 2°41.742 14.7522 4.276246 34.911757 -3.020363
2011-06-17 12:40:10 51°38.828 2°41.647 14.7467 4.276038 34.915082 -3.020363
2011-06-17 12:41:09 51°38.644 2°41.568 14.7459 4.276142 34.919013 -3.020363
2011-06-17 12:42:10 51°38.453 2°41.496 14.7431 4.276246 34.921452 -3.020363
2011-06-17 12:43:09 51°38.278 2°41.386 14.7394 4.27635 34.923891 -3.020363
2011-06-17 12:44:10 51°38.093 2°41.282 14.7291 4.276142 34.929458 -3.020363
2011-06-17 12:45:09 51°37.915 2°41.187 14.7195 4.276039 34.93747 -3.020363
2011-06-17 12:46:10 51°37.735 2°41.077 14.712 4.276039 34.944192 -3.020363
2011-06-17 12:47:10 51°37.553 2°40.99 14.707 4.275832 34.949021 -3.020363
2011-06-17 12:48:10 51°37.374 2°40.889 14.7031 4.275832 34.95201 -3.020363
2011-06-17 12:49:10 51°37.201 2°40.774 14.7018 4.275624 34.954599 -3.020363
2011-06-17 12:50:09 51°37.026 2°40.673 14.7028 4.275521 34.954398 -3.020363
2011-06-17 12:51:10 51°36.847 2°40.565 14.705 4.275521 34.952903 -3.020363
2011-06-17 12:52:09 51°36.677 2°40.451 14.7046 4.275728 34.952557 -3.020363
2011-06-17 12:53:10 51°36.495 2°40.35 14.7112 4.275728 34.950315 -3.020363
2011-06-17 12:54:09 51°36.324 2°40.238 14.7177 4.275832 34.947526 -3.020363
2011-06-17 12:55:10 51°36.145 2°40.13 14.7214 4.276039 34.944192 -3.020363
2011-06-17 12:56:10 51°35.97 2°40.017 14.7338 4.27635 34.942554 -3.020363
2011-06-17 12:57:09 51°35.793 2°39.926 14.7419 4.276764 34.937383 -3.020363
2011-06-17 12:58:10 51°35.608 2°39.842 14.747 4.277179 34.932963 -3.020363
2011-06-17 12:59:09 51°35.432 2°39.742 14.7652 4.27469 34.902024 -3.020363
2011-06-17 13:00:10 51°35.246 2°39.658 14.7713 4.278423 34.923442 -3.020363
2011-06-17 13:01:09 51°35.07 2°39.568 14.783 4.278941 34.918486 -3.020363
2011-06-17 13:02:09 51°34.892 2°39.48 14.7956 4.27946 34.915023 -3.020363
2011-06-17 13:03:10 51°34.711 2°39.383 14.8022 4.279978 34.912306 -3.020363
2011-06-17 13:04:09 51°34.535 2°39.3 14.8069 4.280393 34.908645 -3.020363
2011-06-17 13:05:10 51°34.356 2°39.2 14.8133 4.281015 34.906877 -3.020363
2011-06-17 13:06:10 51°34.18 2°39.104 14.8229 4.281326 34.90525 -3.020363
2011-06-17 13:07:10 51°34 2°39.021 14.8333 4.28174 34.903081 -3.020363
2011-06-17 13:08:10 51°33.825 2°38.922 14.838 4.282363 34.90206 -3.020363
2011-06-17 13:09:09 51°33.647 2°38.847 14.8413 4.282881 34.900838 -3.020363
2011-06-17 13:10:09 51°33.467 2°38.766 14.8527 4.283607 34.90002 -3.020363
2011-06-17 13:11:10 51°33.288 2°38.666 14.862 4.284229 34.899002 -3.020363
2011-06-17 13:12:09 51°33.113 2°38.579 14.8676 4.284747 34.895553 -3.020363
2011-06-17 13:13:10 51°32.929 2°38.501 14.8762 4.285058 34.89096 -3.020363
2011-06-17 13:14:10 51°32.75 2°38.409 14.8816 4.285369 34.888596 -3.020363
2011-06-17 13:15:09 51°32.573 2°38.329 14.8942 4.285369 34.8834 -3.020363
2011-06-17 13:16:10 51°32.391 2°38.236 14.8925 4.285887 34.881443 -3.020363
2011-06-17 13:17:09 51°32.21 2°38.158 14.8964 4.285887 34.879217 -3.020363
2011-06-17 13:18:10 51°32.023 2°38.084 14.8963 4.285887 34.877734 -3.020363
2011-06-17 13:19:09 51°31.843 2°38.009 14.9021 4.285887 34.874767 -3.020363
2011-06-17 13:20:09 51°31.662 2°37.926 14.9032 4.286095 34.873688 -3.020363
2011-06-17 13:21:09 51°31.478 2°37.861 14.9077 4.286095 34.872205 -3.020363
2011-06-17 13:22:09 51°31.3 2°37.775 14.907 4.286302 34.871127 -3.020363
2011-06-17 13:23:10 51°31.116 2°37.7 14.9081 4.286509 34.870791 -3.020363
2011-06-17 13:24:09 51°30.938 2°37.641 14.9049 4.286302 34.870386 -3.020363
2011-06-17 13:25:10 51°30.767 2°37.53 14.904 4.285991 34.869037 -3.020363
2011-06-17 13:26:10 51°30.594 2°37.426 14.8972 4.28568 34.869913 -3.020363
2011-06-17 13:27:10 51°30.418 2°37.333 14.8925 4.284954 34.867754 -3.020363
2011-06-17 13:28:10 51°30.244 2°37.234 14.8923 4.284436 34.866742 -3.020363
2011-06-17 13:29:09 51°30.075 2°37.132 14.8935 4.284332 34.86654 -3.020363
2011-06-17 13:30:10 51°29.898 2°37.036 14.8878 4.284021 34.866674 -3.020363
2011-06-17 13:31:09 51°29.727 2°36.938 14.8909 4.284125 34.866135 -3.020363
2011-06-17 13:32:10 51°29.551 2°36.836 14.8949 4.284228 34.866337 -3.020363
2011-06-17 13:33:09 51°29.379 2°36.739 14.8969 4.284539 34.865461 -3.020363
2011-06-17 13:34:10 51°29.2 2°36.68 14.9059 4.284954 34.864788 -3.020363
2011-06-17 13:35:09 51°29.035 2°36.85 14.9079 4.285265 34.864655 -3.020363
2011-06-17 13:36:09 51°28.883 2°37.085 14.9268 4.285887 34.862164 -3.020363
2011-06-17 13:37:09 51°28.711 2°37.267 14.9569 4.287338 34.85241 -3.020363
2011-06-17 13:38:09 51°28.547 2°37.463 14.9831 4.28879 34.84563 -3.020363
2011-06-17 13:39:09 51°28.384 2°37.663 15.0264 4.290345 34.831675 -3.020363
2011-06-17 13:40:09 51°28.222 2°37.868 15.0756 4.292729 34.813475 -3.020363
2011-06-17 13:41:09 51°28.063 2°38.074 15.1089 4.295425 34.798146 -3.020363
2011-06-17 13:42:09 51°27.905 2°38.282 15.1441 4.297809 34.789598 -3.020363
2011-06-17 13:43:09 51°27.748 2°38.493 15.1593 4.300401 34.785884 -3.020363
2011-06-17 13:44:10 51°27.592 2°38.72 15.1667 4.301334 34.784051 -3.020363
2011-06-17 13:45:10 51°27.433 2°38.926 15.1693 4.301956 34.78234 -3.020363
2011-06-17 13:46:09 51°27.28 2°39.135 15.1815 4.30206 34.778142 -3.020363
2011-06-17 13:47:09 51°27.13 2°39.365 15.1986 4.302371 34.770689 -3.020363
2011-06-17 13:48:09 51°26.98 2°39.593 15.2239 4.302889 34.759253 -3.020363
2011-06-17 13:49:09 51°26.84 2°39.841 15.2493 4.303926 34.746658 -3.020363
2011-06-17 13:50:09 51°26.697 2°40.084 15.2711 4.304962 34.733351 -3.020363
2011-06-17 13:51:10 51°26.53 2°40.285 15.2858 4.305792 34.721844 -3.020363
2011-06-17 13:52:09 51°26.37 2°40.479 15.3026 4.305999 34.712036 -3.020363
2011-06-17 13:53:10 51°26.21 2°40.699 15.3149 4.306206 34.702236 -3.020363
2011-06-17 13:54:10 51°26.05 2°40.91 15.3355 4.306724 34.692331 -3.020363
2011-06-17 13:55:10 51°25.884 2°41.096 15.3543 4.307243 34.679525 -3.020363
2011-06-17 13:56:10 51°25.722 2°41.299 15.3715 4.30745 34.666113 -3.020363
2011-06-17 13:57:10 51°25.559 2°41.503 15.3734 4.306724 34.650855 -3.020363
2011-06-17 13:58:10 51°25.395 2°41.695 15.3831 4.305583 34.634777 -3.020363
2011-06-17 13:59:10 51°25.229 2°41.884 15.3991 4.305479 34.624406 -3.020363
2011-06-17 14:00:10 51°25.071 2°42.089 15.4267 4.30579 34.611245 -3.020363
2011-06-17 14:01:10 51°24.914 2°42.299 15.4492 4.307656 34.601211 -3.020363
2011-06-17 14:02:10 51°24.755 2°42.498 15.4912 4.310974 34.611472 -3.020363
2011-06-17 14:03:10 51°24.593 2°42.69 15.5146 4.310559 34.569427 -3.020363
2011-06-17 14:04:10 51°24.432 2°42.891 15.5099 4.311388 34.566761 -3.020363
2011-06-17 14:05:10 51°24.276 2°43.11 15.5367 4.311077 34.561805 -3.020363
2011-06-17 14:06:10 51°24.111 2°43.303 15.5524 4.31004 34.530875 -3.020363
2011-06-17 14:07:10 51°23.947 2°43.502 15.5679 4.309832 34.513894 -3.020363
2011-06-17 14:08:10 51°23.787 2°43.712 15.5879 4.309313 34.497019 -3.020363
2011-06-17 14:09:10 51°23.625 2°43.918 15.6075 4.309417 34.480698 -3.020363
2011-06-17 14:10:10 51°23.461 2°44.118 15.6204 4.309313 34.462539 -3.020363
2011-06-17 14:11:10 51°23.3 2°44.323 15.6325 4.309313 34.452497 -3.020363
2011-06-17 14:12:10 51°23.141 2°44.529 15.6836 4.307964 34.425395 -3.020363
2011-06-17 14:13:09 51°22.989 2°44.745 15.7619 4.30506 34.343011 -3.020363
2011-06-17 14:14:10 51°22.838 2°44.979 15.7932 4.304748 34.284721 -3.020363
2011-06-17 14:15:10 51°22.686 2°45.201 15.8271 4.307547 34.282669 -3.020363
2011-06-17 14:16:10 51°22.529 2°45.411 15.8425 4.309517 34.276792 -3.020363
2011-06-17 14:17:10 51°22.363 2°45.601 15.8569 4.311591 34.278225 -3.020363
2011-06-17 14:18:10 51°22.201 2°45.799 15.8572 4.314391 34.296034 -3.020363
2011-06-17 14:19:10 51°22.049 2°46.021 15.8601 4.316257 34.312632 -3.020363
2011-06-17 14:20:10 51°21.896 2°46.244 15.8552 4.319576 34.341432 -3.020363
2011-06-17 14:21:10 51°21.742 2°46.468 15.8587 4.324138 34.383435 -3.020363
2011-06-17 14:22:09 51°21.591 2°46.686 15.8702 4.32922 34.425793 -3.020363
2011-06-17 14:23:09 51°21.428 2°46.885 15.897 4.332642 34.440579 -3.020363
2011-06-17 14:24:10 51°21.261 2°47.088 15.9154 4.332227 34.416271 -3.020363
2011-06-17 14:25:10 51°21.099 2°47.296 15.9385 4.330567 34.38378 -3.020363
2011-06-17 14:26:09 51°20.938 2°47.496 15.9694 4.329945 34.358406 -3.020363
2011-06-17 14:27:10 51°20.767 2°47.695 16.0119 4.329737 34.326135 -3.020363
2011-06-17 14:28:10 51°20.604 2°47.903 16.0342 4.331707 34.312518 -3.020363
2011-06-17 14:29:10 51°20.438 2°48.101 16.0897 4.333884 34.311346 -3.020363
2011-06-17 14:30:10 51°20.274 2°48.304 16.1342 4.336061 34.277083 -3.020363
2011-06-17 14:31:10 51°20.108 2°48.5 16.1515 4.339483 34.277104 -3.020363
2011-06-17 14:32:10 51°19.951 2°48.718 16.1343 4.344046 34.308989 -3.020363
2011-06-17 14:33:10 51°19.793 2°48.932 16.1076 4.348298 34.364171 -3.020363
2011-06-17 14:34:10 51°19.629 2°49.128 16.1091 4.350994 34.404243 -3.020363
2011-06-17 14:35:10 51°19.476 2°49.349 16.133 4.35172 34.40643 -3.020363
2011-06-17 14:36:09 51°19.326 2°49.568 16.1581 4.349024 34.360725 -3.020363
2011-06-17 14:37:09 51°19.164 2°49.774 16.1701 4.346845 34.321774 -3.020363
2011-06-17 14:38:10 51°19.007 2°49.996 16.1693 4.345912 34.306501 -3.020363
2011-06-17 14:39:10 51°18.851 2°50.217 16.1629 4.345601 34.303753 -3.020363
2011-06-17 14:40:09 51°18.694 2°50.424 16.1343 4.346742 34.322967 -3.020363
2011-06-17 14:41:10 51°18.533 2°50.64 16.0763 4.350165 34.384909 -3.020363
2011-06-17 14:42:10 51°18.381 2°50.866 15.9972 4.358462 34.514233 -3.020363
2011-06-17 14:43:10 51°18.222 2°51.07 15.9773 4.367278 34.643635 -3.020363
2011-06-17 14:44:10 51°18.066 2°51.284 15.9738 4.368938 34.674789 -3.020363
2011-06-17 14:45:10 51°17.911 2°51.5 16.0094 4.370494 34.685749 -3.020363
2011-06-17 14:46:10 51°17.751 2°51.701 16.0349 4.377546 34.715508 -3.020363
2011-06-17 14:47:09 51°17.597 2°51.91 16.0347 4.380657 34.727408 -3.020363
2011-06-17 14:48:09 51°17.444 2°52.131 16.0168 4.380242 34.727298 -3.020363
2011-06-17 14:49:10 51°17.279 2°52.333 16.0043 4.378272 34.724811 -3.020363
2011-06-17 14:50:09 51°17.119 2°52.523 16.0073 4.377235 34.720606 -3.020363
2011-06-17 14:51:10 51°16.942 2°52.687 16.0106 4.37682 34.714779 -3.020363
2011-06-17 14:52:10 51°16.766 2°52.842 16.0178 4.374953 34.698921 -3.020363
2011-06-17 14:53:10 51°16.585 2°52.986 16.022 4.376301 34.701605 -3.020363
2011-06-17 14:54:10 51°16.405 2°53.14 16.0208 4.376612 34.706509 -3.020363
2011-06-17 14:55:10 51°16.22 2°53.265 16.0328 4.376508 34.700591 -3.020363
2011-06-17 14:56:10 51°16.034 2°53.391 16.0403 4.376819 34.692646 -3.020363
2011-06-17 14:57:10 51°15.848 2°53.51 16.0664 4.376404 34.682547 -3.020363
2011-06-17 14:58:10 51°15.666 2°53.65 16.0589 4.3763 34.658825 -3.020363
2011-06-17 14:59:10 51°15.514 2°53.877 16.0289 4.374434 34.662931 -3.020363
2011-06-17 15:00:10 51°15.356 2°54.091 16.2969 4.374641 34.66477 -3.020363
2011-06-17 15:01:10 51°15.2 2°54.308 16.375 4.374434 34.662931 -3.020363
2011-06-17 15:02:10 51°15.038 2°54.506 16.4761 4.37433 34.661298 -3.020363
2011-06-17 15:03:10 51°14.875 2°54.706 16.5661 4.37433 34.660586 -3.020363
2011-06-17 15:04:09 51°14.715 2°54.891 16.6422 4.374434 34.660793 -3.020363
2011-06-17 15:05:10 51°14.533 2°55.022 16.7388 4.374434 34.660793 -3.020363
2011-06-17 15:06:10 51°14.365 2°55.175 16.8132 4.374641 34.661207 -3.020363
2011-06-17 15:07:10 51°14.243 2°55.303 16.8596 4.374745 34.660702 -3.020363
2011-06-17 15:08:13 51°14.132 2°55.413 16.945 4.375056 34.661324 -3.020363
2011-06-17 15:09:14 51°14.026 2°55.493 17.0078 4.375367 34.661233 -3.020363
2011-06-17 15:10:13 51°13.931 2°55.547 17.0695 4.375678 34.661855 -3.020363
2011-06-17 15:11:13 51°13.839 2°55.61 17.1624 4.375989 34.662476 -3.020363
2011-06-17 15:12:13 51°13.759 2°55.698 17.2301 4.376404 34.663305 -3.020363
2011-06-17 15:13:13 51°13.708 2°55.796 17.3201 4.376715 34.663214 -3.020363
2011-06-17 15:14:10 51°13.674 2°55.878 17.4023 4.37713 34.664755 -3.020363
2011-06-17 15:15:09 51°13.652 2°55.958 17.4828 4.377648 34.667215 -3.020363